»·PEaware :: N850VJ KBTY-KSAN

N850VJ :: KBTY-KSAN

FLIGHT INFORMATION

Flight Status: Arrived
Operator: Privately registered:
United States
More flights under this callsign
Pilot: Anonymous 13363 (13363)
Aircraft: Unknown
(TBM9)
More flights by this aircraft type
Origin: KBTY Beatty
United States
Destination: KSAN San Diego Intl-Lindbergh
United States
More flights between these airports :: More routes between these airports
Route: +BTY V135 CLARR TNP TRM V514 MZB
File this flight plan on PilotEdge
Remarks:
Altitude:
(Current/Filed)
27,000ft
Speed:
(Current/Filed)
315kts
Departed: 29-Jan-18 05:28 PM
Arrived: 29-Jan-18 06:38 PM
Distance/Time
Traveled:
248nm/1:09
Distance/Time
To Go:
Arrived

Flight Plot

Page will automatically refresh every two minutes.

Flight plan parsing failed; only flown route is shown


Map Options




Map Legend


Flown Route
Filed Route
Departure Airport
Arrival Airport
Navaid (VOR, NDB)
Fix

Horizontal Profiles

Position Reports

Time Latitude Longitude Heading Altitude Ground
Speed
29-Jan-18 17:30 36.868402 -116.784851 88 3168ft 0kts
29-Jan-18 17:31 36.868402 -116.784851 88 3168ft 0kts
29-Jan-18 17:32 36.868402 -116.784851 88 3168ft 0kts
29-Jan-18 17:33 36.868606 -116.785477 270 3170ft 11kts
29-Jan-18 17:34 36.858134 -116.786288 166 3222ft 118kts
29-Jan-18 17:35 36.826368 -116.767159 144 5167ft 133kts
29-Jan-18 17:36 36.795560 -116.741320 139 7151ft 136kts
29-Jan-18 17:37 36.765133 -116.711955 139 9301ft 142kts
29-Jan-18 17:38 36.732606 -116.680481 141 11617ft 158kts
29-Jan-18 17:39 36.697388 -116.646452 143 13806ft 164kts
29-Jan-18 17:40 36.661008 -116.611470 144 16002ft 168kts
29-Jan-18 17:41 36.622766 -116.574802 144 17546ft 198kts
29-Jan-18 17:42 36.576545 -116.530574 144 18683ft 206kts
29-Jan-18 17:43 36.535388 -116.491097 145 20998ft 183kts
29-Jan-18 17:44 36.494212 -116.451732 145 22699ft 191kts
29-Jan-18 17:45 36.446978 -116.406716 145 23996ft 216kts
29-Jan-18 17:46 36.401455 -116.363149 146 26022ft 218kts
29-Jan-18 17:47 36.349911 -116.314300 146 27020ft 266kts
29-Jan-18 17:48 36.285196 -116.252933 145 26993ft 312kts
29-Jan-18 17:49 36.214698 -116.186088 145 26983ft 325kts
29-Jan-18 17:50 36.142657 -116.117896 145 26981ft 329kts
29-Jan-18 17:51 36.069918 -116.049190 145 26980ft 330kts
29-Jan-18 17:52 35.997531 -115.980976 145 26980ft 329kts
29-Jan-18 17:53 35.924367 -115.912221 145 26954ft 331kts
29-Jan-18 17:54 35.859219 -115.851128 145 26954ft 331kts
29-Jan-18 17:55 35.786461 -115.783050 145 26961ft 330kts
29-Jan-18 17:56 35.713109 -115.714574 145 26981ft 331kts
29-Jan-18 17:57 35.628804 -115.687601 185 26987ft 318kts
29-Jan-18 17:58 35.540931 -115.691510 185 26979ft 316kts
29-Jan-18 17:59 35.452949 -115.695704 185 26982ft 317kts
29-Jan-18 18:00 35.365003 -115.700127 185 26981ft 318kts
29-Jan-18 18:01 35.280736 -115.704518 185 26981ft 318kts
29-Jan-18 18:02 35.192697 -115.709224 185 26982ft 318kts
29-Jan-18 18:03 35.104549 -115.714027 185 26954ft 318kts
29-Jan-18 18:04 35.016374 -115.718895 185 26954ft 318kts
29-Jan-18 18:05 34.928092 -115.723820 185 26900ft 319kts
29-Jan-18 18:06 34.853118 -115.728066 185 26902ft 316kts
29-Jan-18 18:07 34.765656 -115.732935 185 26951ft 315kts
29-Jan-18 18:08 34.678233 -115.737875 185 26982ft 317kts
29-Jan-18 18:09 34.590089 -115.742865 185 26981ft 317kts
29-Jan-18 18:10 34.502121 -115.747848 185 26981ft 318kts
29-Jan-18 18:11 34.414047 -115.752839 185 26981ft 318kts
29-Jan-18 18:12 34.326023 -115.757825 185 26981ft 318kts
29-Jan-18 18:13 34.237964 -115.762917 185 26984ft 317kts
29-Jan-18 18:14 34.150027 -115.767777 185 26982ft 318kts
29-Jan-18 18:15 34.071695 -115.806998 216 26984ft 309kts
29-Jan-18 18:16 34.000486 -115.863680 216 26981ft 309kts
29-Jan-18 18:17 33.928914 -115.920764 216 26981ft 309kts
29-Jan-18 18:18 33.861982 -115.974204 216 26980ft 309kts
29-Jan-18 18:19 33.790755 -116.031096 216 26977ft 309kts
29-Jan-18 18:20 33.732061 -116.078103 215 26817ft 312kts
29-Jan-18 18:21 33.671279 -116.126492 216 26848ft 309kts
29-Jan-18 18:22 33.601062 -116.184830 218 26817ft 308kts
29-Jan-18 18:23 33.532064 -116.245180 218 26817ft 308kts
29-Jan-18 18:24 33.488448 -116.283296 218 26817ft 308kts
29-Jan-18 18:25 33.422629 -116.340881 217 26139ft 320kts
29-Jan-18 18:26 33.352531 -116.402143 216 24924ft 309kts
29-Jan-18 18:27 33.283734 -116.462028 215 23210ft 306kts
29-Jan-18 18:28 33.215510 -116.521196 214 19926ft 301kts
29-Jan-18 18:29 33.152367 -116.575880 213 17180ft 289kts
29-Jan-18 18:30 33.081447 -116.590604 184 14660ft 278kts
29-Jan-18 18:31 33.005788 -116.598795 183 12237ft 269kts
29-Jan-18 18:32 32.931468 -116.606730 182 10079ft 274kts
29-Jan-18 18:33 32.862041 -116.614051 182 10018ft 261kts
29-Jan-18 18:34 32.788903 -116.627389 215 9009ft 286kts
29-Jan-18 18:35 32.753708 -116.694346 241 7798ft 287kts
29-Jan-18 18:36 32.715719 -116.775760 241 6314ft 284kts
29-Jan-18 18:37 32.688541 -116.858952 261 5516ft 264kts
29-Jan-18 18:38 32.678032 -116.943702 261 4961ft 245kts
29-Jan-18 18:39 32.690183 -117.012026 286 3829ft 200kts
29-Jan-18 18:40 32.704577 -117.069669 288 2643ft 170kts
29-Jan-18 18:41 32.716034 -117.117275 286 1408ft 129kts
29-Jan-18 18:42 32.724242 -117.150761 285 688ft 97kts
29-Jan-18 18:43 32.731288 -117.180312 286 39ft 87kts
29-Jan-18 18:44 32.734521 -117.188840 105 16ft 14kts
29-Jan-18 18:45 32.733593 -117.185074 106 17ft 13kts
29-Jan-18 18:46 32.732144 -117.179041 107 20ft 20kts
29-Jan-18 18:47 32.732372 -117.177418 103 26ft 0kts
29-Jan-18 18:48 32.732372 -117.177418 103 26ft 0kts
29-Jan-18 18:49 32.732372 -117.177418 103 26ft 0kts
29-Jan-18 18:50 32.732372 -117.177418 103 26ft 0kts
29-Jan-18 18:51 32.732372 -117.177418 103 26ft 0kts
29-Jan-18 18:52 32.732372 -117.177418 103 26ft 0kts
29-Jan-18 18:53 32.732372 -117.177418 103 26ft 0kts
29-Jan-18 18:54 32.732372 -117.177418 103 26ft 0kts
29-Jan-18 18:55 32.732372 -117.177418 103 26ft 0kts
29-Jan-18 18:56 32.732372 -117.177418 103 26ft 0kts
29-Jan-18 18:57 32.732372 -117.177418 103 26ft 0kts
29-Jan-18 18:58 32.732372 -117.177418 103 26ft 0kts

Navigation Log

Ident Type
Flight plan parsing failed, navigation log unavailable